sensor_id;sensor_type;location;lat;lon;timestamp;pressure;altitude;pressure_sealevel;temperature;humidity
48517;BME280;34310;51.904;4.256;2023-05-22T00:01:29;101741.31;;;20.94;56.21
48517;BME280;34310;51.904;4.256;2023-05-22T00:03:58;101736.94;;;20.95;56.59
48517;BME280;34310;51.904;4.256;2023-05-22T00:06:25;101737.78;;;20.94;56.24
48517;BME280;34310;51.904;4.256;2023-05-22T00:08:53;101734.25;;;20.93;56.34
48517;BME280;34310;51.904;4.256;2023-05-22T00:11:21;101734.25;;;20.93;56.22
48517;BME280;34310;51.904;4.256;2023-05-22T00:13:49;101725.41;;;20.91;56.50
48517;BME280;34310;51.904;4.256;2023-05-22T00:16:16;101728.03;;;20.91;56.49
48517;BME280;34310;51.904;4.256;2023-05-22T00:18:43;101732.41;;;20.91;56.33
48517;BME280;34310;51.904;4.256;2023-05-22T00:21:11;101728.81;;;20.89;56.35
48517;BME280;34310;51.904;4.256;2023-05-22T00:23:38;101732.34;;;20.89;56.43
48517;BME280;34310;51.904;4.256;2023-05-22T00:26:05;101727.03;;;20.88;56.37
48517;BME280;34310;51.904;4.256;2023-05-22T00:28:33;101724.41;;;20.88;56.37
48517;BME280;34310;51.904;4.256;2023-05-22T00:31:00;101720.03;;;20.88;56.50
48517;BME280;34310;51.904;4.256;2023-05-22T00:33:27;101714.72;;;20.87;56.34
48517;BME280;34310;51.904;4.256;2023-05-22T00:35:55;101718.19;;;20.86;56.57
48517;BME280;34310;51.904;4.256;2023-05-22T00:38:33;101715.56;;;20.86;56.44
48517;BME280;34310;51.904;4.256;2023-05-22T00:41:02;101711.16;;;20.85;56.51
48517;BME280;34310;51.904;4.256;2023-05-22T00:43:30;101711.16;;;20.85;56.38
48517;BME280;34310;51.904;4.256;2023-05-22T00:45:58;101707.56;;;20.83;56.46
48517;BME280;34310;51.904;4.256;2023-05-22T00:48:25;101706.66;;;20.82;56.41
48517;BME280;34310;51.904;4.256;2023-05-22T00:50:54;101711.91;;;20.82;56.34
48517;BME280;34310;51.904;4.256;2023-05-22T00:53:24;101715.34;;;20.81;56.35
48517;BME280;34310;51.904;4.256;2023-05-22T00:55:53;101719.69;;;20.81;56.45
48517;BME280;34310;51.904;4.256;2023-05-22T00:58:21;101718.78;;;20.80;56.40
48517;BME280;34310;51.904;4.256;2023-05-22T01:00:50;101716.09;;;20.79;56.45
48517;BME280;34310;51.904;4.256;2023-05-22T01:03:19;101721.34;;;20.79;56.53
48517;BME280;34310;51.904;4.256;2023-05-22T01:05:52;101719.63;;;20.79;56.26
48517;BME280;34310;51.904;4.256;2023-05-22T01:08:20;101722.19;;;20.78;56.70
48517;BME280;34310;51.904;4.256;2023-05-22T01:10:53;101727.38;;;20.76;56.65
48517;BME280;34310;51.904;4.256;2023-05-22T01:19:31;101723.78;;;20.74;56.40
48517;BME280;34310;51.904;4.256;2023-05-22T01:30:46;101707.91;;;20.71;56.53
48517;BME280;34310;51.904;4.256;2023-05-22T01:33:16;101701.75;;;20.70;56.47
48517;BME280;34310;51.904;4.256;2023-05-22T01:35:50;101699.06;;;20.69;56.42
48517;BME280;34310;51.904;4.256;2023-05-22T01:38:20;101690.31;;;20.68;56.43
48517;BME280;34310;51.904;4.256;2023-05-22T01:40:48;101688.56;;;20.69;56.68
48517;BME280;34310;51.904;4.256;2023-05-22T01:43:16;101682.38;;;20.67;56.75
48517;BME280;34310;51.904;4.256;2023-05-22T01:45:43;101678.00;;;20.67;56.67
48517;BME280;34310;51.904;4.256;2023-05-22T01:48:11;101678.78;;;20.65;56.48
48517;BME280;34310;51.904;4.256;2023-05-22T01:50:39;101677.06;;;20.65;56.60
48517;BME280;34310;51.904;4.256;2023-05-22T01:53:11;101672.63;;;20.64;56.74
48517;BME280;34310;51.904;4.256;2023-05-22T01:55:51;101677.94;;;20.66;56.55
48517;BME280;34310;51.904;4.256;2023-05-22T01:58:33;101669.13;;;20.64;56.56
48517;BME280;34310;51.904;4.256;2023-05-22T02:01:03;101669.13;;;20.64;56.72
48517;BME280;34310;51.904;4.256;2023-05-22T02:03:33;101660.34;;;20.63;56.76
48517;BME280;34310;51.904;4.256;2023-05-22T02:06:05;101658.56;;;20.62;56.78
48517;BME280;34310;51.904;4.256;2023-05-22T02:08:38;101659.44;;;20.63;56.65
48517;BME280;34310;51.904;4.256;2023-05-22T02:11:09;101660.28;;;20.62;56.63
48517;BME280;34310;51.904;4.256;2023-05-22T02:13:37;101663.75;;;20.61;56.73
48517;BME280;34310;51.904;4.256;2023-05-22T02:16:07;101658.50;;;20.61;56.63
48517;BME280;34310;51.904;4.256;2023-05-22T02:18:34;101656.69;;;20.60;56.55
48517;BME280;34310;51.904;4.256;2023-05-22T02:21:02;101652.28;;;20.59;56.81
48517;BME280;34310;51.904;4.256;2023-05-22T02:23:29;101646.13;;;20.58;56.66
48517;BME280;34310;51.904;4.256;2023-05-22T02:25:56;101645.25;;;20.58;56.57
48517;BME280;34310;51.904;4.256;2023-05-22T02:28:24;101635.59;;;20.57;56.79
48517;BME280;34310;51.904;4.256;2023-05-22T02:30:51;101646.91;;;20.56;56.76
48517;BME280;34310;51.904;4.256;2023-05-22T02:33:19;101644.28;;;20.56;56.60
48517;BME280;34310;51.904;4.256;2023-05-22T02:35:46;101643.38;;;20.55;56.71
48517;BME280;34310;51.904;4.256;2023-05-22T02:38:13;101638.13;;;20.55;56.72
48517;BME280;34310;51.904;4.256;2023-05-22T02:40:41;101629.31;;;20.53;56.62
48517;BME280;34310;51.904;4.256;2023-05-22T02:43:08;101640.69;;;20.54;56.78
48517;BME280;34310;51.904;4.256;2023-05-22T02:45:36;101632.84;;;20.54;56.63
48517;BME280;34310;51.904;4.256;2023-05-22T02:48:03;101624.06;;;20.53;56.85
48517;BME280;34310;51.904;4.256;2023-05-22T02:50:30;101627.50;;;20.52;56.61
48517;BME280;34310;51.904;4.256;2023-05-22T02:52:58;101625.69;;;20.51;56.83
48517;BME280;34310;51.904;4.256;2023-05-22T02:55:25;101634.47;;;20.52;56.91
48517;BME280;34310;51.904;4.256;2023-05-22T02:57:52;101635.28;;;20.51;56.79
48517;BME280;34310;51.904;4.256;2023-05-22T03:00:20;101631.78;;;20.50;56.86
48517;BME280;34310;51.904;4.256;2023-05-22T03:02:48;101626.47;;;20.49;56.63
48517;BME280;34310;51.904;4.256;2023-05-22T03:05:16;101634.34;;;20.49;56.54
48517;BME280;34310;51.904;4.256;2023-05-22T03:07:44;101626.41;;;20.47;56.68
48517;BME280;34310;51.904;4.256;2023-05-22T03:10:15;101634.28;;;20.47;56.71
48517;BME280;34310;51.904;4.256;2023-05-22T03:12:42;101636.00;;;20.47;56.84
48517;BME280;34310;51.904;4.256;2023-05-22T03:15:10;101636.00;;;20.47;56.78
48517;BME280;34310;51.904;4.256;2023-05-22T03:17:38;101634.19;;;20.46;56.72
48517;BME280;34310;51.904;4.256;2023-05-22T03:20:06;101632.41;;;20.45;56.83
48517;BME280;34310;51.904;4.256;2023-05-22T03:22:34;101634.13;;;20.44;56.78
48517;BME280;34310;51.904;4.256;2023-05-22T03:25:02;101635.03;;;20.45;56.67
48517;BME280;34310;51.904;4.256;2023-05-22T03:27:30;101626.19;;;20.42;56.77
48517;BME280;34310;51.904;4.256;2023-05-22T03:29:57;101624.47;;;20.43;56.66
48517;BME280;34310;51.904;4.256;2023-05-22T03:32:24;101617.44;;;20.42;56.82
48517;BME280;34310;51.904;4.256;2023-05-22T03:34:52;101616.53;;;20.41;56.63
48517;BME280;34310;51.904;4.256;2023-05-22T03:37:19;101628.75;;;20.41;56.98
48517;BME280;34310;51.904;4.256;2023-05-22T03:39:46;101615.66;;;20.41;56.86
48517;BME280;34310;51.904;4.256;2023-05-22T03:42:14;101620.00;;;20.40;57.05
48517;BME280;34310;51.904;4.256;2023-05-22T03:44:42;101619.09;;;20.40;56.81
48517;BME280;34310;51.904;4.256;2023-05-22T03:47:09;101617.28;;;20.39;56.91
48517;BME280;34310;51.904;4.256;2023-05-22T03:49:37;101618.09;;;20.38;56.77
48517;BME280;34310;51.904;4.256;2023-05-22T03:52:04;101621.63;;;20.38;56.69
48517;BME280;34310;51.904;4.256;2023-05-22T03:54:32;101607.63;;;20.38;56.85
48517;BME280;34310;51.904;4.256;2023-05-22T03:56:59;101606.72;;;20.37;56.81
48517;BME280;34310;51.904;4.256;2023-05-22T03:59:26;101614.59;;;20.37;57.01
48517;BME280;34310;51.904;4.256;2023-05-22T04:01:54;101617.16;;;20.36;57.02
48517;BME280;34310;51.904;4.256;2023-05-22T04:04:24;101616.25;;;20.35;56.80
48517;BME280;34310;51.904;4.256;2023-05-22T04:06:53;101613.63;;;20.35;57.02
48517;BME280;34310;51.904;4.256;2023-05-22T04:09:20;101609.22;;;20.34;56.86
48517;BME280;34310;51.904;4.256;2023-05-22T04:11:47;101608.31;;;20.34;56.99
48517;BME280;34310;51.904;4.256;2023-05-22T04:14:15;101617.91;;;20.33;56.81
48517;BME280;34310;51.904;4.256;2023-05-22T04:16:43;101615.28;;;20.33;57.09
48517;BME280;34310;51.904;4.256;2023-05-22T04:19:10;101624.00;;;20.32;57.06
48517;BME280;34310;51.904;4.256;2023-05-22T04:21:38;101632.69;;;20.31;56.98
48517;BME280;34310;51.904;4.256;2023-05-22T04:24:06;101630.91;;;20.30;56.92
48517;BME280;34310;51.904;4.256;2023-05-22T04:26:33;101633.50;;;20.30;57.13
48517;BME280;34310;51.904;4.256;2023-05-22T04:29:02;101633.50;;;20.30;56.95
48517;BME280;34310;51.904;4.256;2023-05-22T04:31:30;101643.09;;;20.30;56.99
48517;BME280;34310;51.904;4.256;2023-05-22T04:33:58;101653.53;;;20.28;56.90
48517;BME280;34310;51.904;4.256;2023-05-22T04:36:26;101651.81;;;20.29;56.97
48517;BME280;34310;51.904;4.256;2023-05-22T04:38:54;101643.03;;;20.28;57.03
48517;BME280;34310;51.904;4.256;2023-05-22T04:41:21;101647.47;;;20.29;57.05
48517;BME280;34310;51.904;4.256;2023-05-22T04:43:52;101646.50;;;20.27;56.98
48517;BME280;34310;51.904;4.256;2023-05-22T04:46:20;101654.38;;;20.27;57.12
48517;BME280;34310;51.904;4.256;2023-05-22T04:48:47;101643.88;;;20.27;56.95
48517;BME280;34310;51.904;4.256;2023-05-22T04:51:15;101638.56;;;20.26;57.16
48517;BME280;34310;51.904;4.256;2023-05-22T04:53:43;101633.31;;;20.26;57.14
48517;BME280;34310;51.904;4.256;2023-05-22T04:56:12;101637.66;;;20.25;56.91
48517;BME280;34310;51.904;4.256;2023-05-22T04:58:47;101641.19;;;20.26;57.07
48517;BME280;34310;51.904;4.256;2023-05-22T05:01:19;101649.00;;;20.24;57.22
48517;BME280;34310;51.904;4.256;2023-05-22T05:03:47;101649.06;;;20.26;57.20
48517;BME280;34310;51.904;4.256;2023-05-22T05:06:15;101640.19;;;20.24;57.16
48517;BME280;34310;51.904;4.256;2023-05-22T05:08:43;101637.56;;;20.24;57.00
48517;BME280;34310;51.904;4.256;2023-05-22T05:11:12;101639.38;;;20.25;57.10
48517;BME280;34310;51.904;4.256;2023-05-22T05:13:40;101636.66;;;20.23;57.27
48517;BME280;34310;51.904;4.256;2023-05-22T05:16:07;101646.25;;;20.23;57.10
48517;BME280;34310;51.904;4.256;2023-05-22T05:18:35;101642.75;;;20.22;57.03
48517;BME280;34310;51.904;4.256;2023-05-22T05:21:03;101637.50;;;20.22;57.36
48517;BME280;34310;51.904;4.256;2023-05-22T05:23:30;101638.34;;;20.21;57.19
48517;BME280;34310;51.904;4.256;2023-05-22T05:25:57;101643.56;;;20.21;57.11
48517;BME280;34310;51.904;4.256;2023-05-22T05:28:25;101646.19;;;20.21;57.28
48517;BME280;34310;51.904;4.256;2023-05-22T05:30:52;101643.56;;;20.21;57.43
48517;BME280;34310;51.904;4.256;2023-05-22T05:33:20;101646.19;;;20.21;57.33
48517;BME280;34310;51.904;4.256;2023-05-22T05:35:47;101640.94;;;20.21;57.34
48517;BME280;34310;51.904;4.256;2023-05-22T05:38:16;101643.56;;;20.21;57.26
48517;BME280;34310;51.904;4.256;2023-05-22T05:40:46;101642.69;;;20.21;57.48
48517;BME280;34310;51.904;4.256;2023-05-22T05:43:14;101640.06;;;20.21;57.18
48517;BME280;34310;51.904;4.256;2023-05-22T05:45:41;101643.50;;;20.20;57.36
48517;BME280;34310;51.904;4.256;2023-05-22T05:48:09;101639.16;;;20.20;57.25
48517;BME280;34310;51.904;4.256;2023-05-22T05:50:38;101642.69;;;20.21;57.53
48517;BME280;34310;51.904;4.256;2023-05-22T05:53:06;101644.41;;;20.20;57.19
48517;BME280;34310;51.904;4.256;2023-05-22T05:55:34;101647.03;;;20.20;57.43
48517;BME280;34310;51.904;4.256;2023-05-22T05:58:01;101633.91;;;20.20;57.41
48517;BME280;34310;51.904;4.256;2023-05-22T06:00:28;101641.78;;;20.20;57.33
48517;BME280;34310;51.904;4.256;2023-05-22T06:02:56;101648.75;;;20.20;57.28
48517;BME280;34310;51.904;4.256;2023-05-22T06:05:23;101653.94;;;20.18;57.23
48517;BME280;34310;51.904;4.256;2023-05-22T06:07:53;101662.69;;;20.19;57.37
48517;BME280;34310;51.904;4.256;2023-05-22T06:10:20;101659.19;;;20.18;57.39
48517;BME280;34310;51.904;4.256;2023-05-22T06:12:48;101667.09;;;20.20;57.42
48517;BME280;34310;51.904;4.256;2023-05-22T06:15:15;101676.69;;;20.19;57.58
48517;BME280;34310;51.904;4.256;2023-05-22T06:17:43;101679.31;;;20.19;57.31
48517;BME280;34310;51.904;4.256;2023-05-22T06:20:11;101684.56;;;20.19;57.47
48517;BME280;34310;51.904;4.256;2023-05-22T06:22:40;101684.56;;;20.19;57.44
48517;BME280;34310;51.904;4.256;2023-05-22T06:25:08;101683.66;;;20.19;57.37
48517;BME280;34310;51.904;4.256;2023-05-22T06:27:36;101682.84;;;20.20;57.70
48517;BME280;34310;51.904;4.256;2023-05-22T06:30:04;101695.94;;;20.20;57.63
48517;BME280;34310;51.904;4.256;2023-05-22T06:32:32;101692.44;;;20.19;57.54
48517;BME280;34310;51.904;4.256;2023-05-22T06:34:59;101704.72;;;20.20;57.64
48517;BME280;34310;51.904;4.256;2023-05-22T06:37:27;101712.50;;;20.19;57.63
48517;BME280;34310;51.904;4.256;2023-05-22T06:39:54;101709.06;;;20.20;57.50
48517;BME280;34310;51.904;4.256;2023-05-22T06:42:22;101723.97;;;20.21;57.74
48517;BME280;34310;51.904;4.256;2023-05-22T06:44:49;101728.31;;;20.20;57.73
48517;BME280;34310;51.904;4.256;2023-05-22T06:47:18;101735.34;;;20.21;57.87
48517;BME280;34310;51.904;4.256;2023-05-22T06:49:45;101732.72;;;20.21;57.62
48517;BME280;34310;51.904;4.256;2023-05-22T06:52:13;101732.72;;;20.21;57.75
48517;BME280;34310;51.904;4.256;2023-05-22T06:54:41;101732.72;;;20.21;57.92
48517;BME280;34310;51.904;4.256;2023-05-22T06:57:09;101739.75;;;20.22;57.85
48517;BME280;34310;51.904;4.256;2023-05-22T06:59:37;101733.63;;;20.22;57.93
48517;BME280;34310;51.904;4.256;2023-05-22T07:02:04;101738.94;;;20.23;57.80
48517;BME280;34310;51.904;4.256;2023-05-22T07:04:32;101743.38;;;20.24;57.77
48517;BME280;34310;51.904;4.256;2023-05-22T07:06:59;101750.31;;;20.24;57.85
48517;BME280;34310;51.904;4.256;2023-05-22T07:09:27;101753.06;;;20.25;58.01
48517;BME280;34310;51.904;4.256;2023-05-22T07:11:54;101752.16;;;20.25;57.97
48517;BME280;34310;51.904;4.256;2023-05-22T07:14:22;101756.50;;;20.24;57.98
48517;BME280;34310;51.904;4.256;2023-05-22T07:16:49;101741.66;;;20.25;57.93
48517;BME280;34310;51.904;4.256;2023-05-22T07:19:17;101761.81;;;20.26;57.97
48517;BME280;34310;51.904;4.256;2023-05-22T07:21:45;101751.31;;;20.26;57.95
48517;BME280;34310;51.904;4.256;2023-05-22T07:24:12;101745.19;;;20.25;57.85
48517;BME280;34310;51.904;4.256;2023-05-22T07:26:40;101749.59;;;20.26;57.90
48517;BME280;34310;51.904;4.256;2023-05-22T07:29:13;101749.59;;;20.26;58.04
48517;BME280;34310;51.904;4.256;2023-05-22T07:31:40;101741.72;;;20.26;58.14
48517;BME280;34310;51.904;4.256;2023-05-22T07:34:08;101746.97;;;20.26;58.06
48517;BME280;34310;51.904;4.256;2023-05-22T07:36:36;101738.28;;;20.27;58.10
48517;BME280;34310;51.904;4.256;2023-05-22T07:39:04;101743.53;;;20.27;58.19
48517;BME280;34310;51.904;4.256;2023-05-22T07:41:31;101731.31;;;20.28;57.98
48517;BME280;34310;51.904;4.256;2023-05-22T07:43:59;101736.63;;;20.29;57.95
48517;BME280;34310;51.904;4.256;2023-05-22T07:46:26;101727.84;;;20.29;58.22
48517;BME280;34310;51.904;4.256;2023-05-22T07:48:54;101730.47;;;20.29;58.16
48517;BME280;34310;51.904;4.256;2023-05-22T07:51:21;101724.41;;;20.30;58.09
48517;BME280;34310;51.904;4.256;2023-05-22T07:53:49;101725.31;;;20.30;58.00
48517;BME280;34310;51.904;4.256;2023-05-22T07:56:16;101731.44;;;20.31;58.11
48517;BME280;34310;51.904;4.256;2023-05-22T07:58:43;101730.53;;;20.30;58.15
48517;BME280;34310;51.904;4.256;2023-05-22T08:01:14;101730.53;;;20.30;58.15
48517;BME280;34310;51.904;4.256;2023-05-22T08:03:41;101735.03;;;20.33;58.08
48517;BME280;34310;51.904;4.256;2023-05-22T08:06:09;101723.66;;;20.32;57.96
48517;BME280;34310;51.904;4.256;2023-05-22T08:08:37;101731.50;;;20.32;58.08
48517;BME280;34310;51.904;4.256;2023-05-22T08:11:04;101749.03;;;20.33;58.28
48517;BME280;34310;51.904;4.256;2023-05-22T08:13:32;101744.63;;;20.32;58.33
48517;BME280;34310;51.904;4.256;2023-05-22T08:16:00;101754.28;;;20.33;58.15
48517;BME280;34310;51.904;4.256;2023-05-22T08:18:28;101739.44;;;20.34;58.01
48517;BME280;34310;51.904;4.256;2023-05-22T08:20:56;101758.72;;;20.34;57.98
48517;BME280;34310;51.904;4.256;2023-05-22T08:23:23;101737.72;;;20.34;58.16
48517;BME280;34310;51.904;4.256;2023-05-22T08:25:51;101739.53;;;20.35;58.08
48517;BME280;34310;51.904;4.256;2023-05-22T08:28:18;101719.38;;;20.34;58.05
48517;BME280;34310;51.904;4.256;2023-05-22T08:30:45;101731.66;;;20.35;58.04
48517;BME280;34310;51.904;4.256;2023-05-22T08:33:13;101739.59;;;20.37;58.10
48517;BME280;34310;51.904;4.256;2023-05-22T08:35:40;101737.84;;;20.37;58.10
48517;BME280;34310;51.904;4.256;2023-05-22T08:38:07;101736.97;;;20.37;58.34
48517;BME280;34310;51.904;4.256;2023-05-22T08:40:36;101726.53;;;20.38;58.26
48517;BME280;34310;51.904;4.256;2023-05-22T08:43:08;101730.00;;;20.37;58.25
48517;BME280;34310;51.904;4.256;2023-05-22T08:45:35;101709.91;;;20.38;58.15
48517;BME280;34310;51.904;4.256;2023-05-22T08:48:04;101707.28;;;20.38;58.18
48517;BME280;34310;51.904;4.256;2023-05-22T08:50:34;101701.22;;;20.39;58.14
48517;BME280;34310;51.904;4.256;2023-05-22T08:53:07;101699.47;;;20.39;58.18
48517;BME280;34310;51.904;4.256;2023-05-22T08:55:34;101703.94;;;20.40;58.15
48517;BME280;34310;51.904;4.256;2023-05-22T08:58:03;101710.91;;;20.40;58.31
48517;BME280;34310;51.904;4.256;2023-05-22T09:00:32;101715.31;;;20.41;58.14
48517;BME280;34310;51.904;4.256;2023-05-22T09:02:59;101712.69;;;20.41;58.18
48517;BME280;34310;51.904;4.256;2023-05-22T09:05:27;101713.59;;;20.41;58.42
48517;BME280;34310;51.904;4.256;2023-05-22T09:07:55;101709.25;;;20.42;58.21
48517;BME280;34310;51.904;4.256;2023-05-22T09:10:31;101709.25;;;20.42;58.19
48517;BME280;34310;51.904;4.256;2023-05-22T09:13:06;101714.56;;;20.44;58.33
48517;BME280;34310;51.904;4.256;2023-05-22T09:15:38;101704.91;;;20.42;58.36
48517;BME280;34310;51.904;4.256;2023-05-22T09:18:06;101708.41;;;20.43;58.21
48517;BME280;34310;51.904;4.256;2023-05-22T09:20:36;101707.59;;;20.44;58.13
48517;BME280;34310;51.904;4.256;2023-05-22T09:23:11;101708.53;;;20.46;58.39
48517;BME280;34310;51.904;4.256;2023-05-22T09:25:41;101702.34;;;20.44;58.35
48517;BME280;34310;51.904;4.256;2023-05-22T09:28:10;101707.66;;;20.46;58.20
48517;BME280;34310;51.904;4.256;2023-05-22T09:30:39;101712.91;;;20.46;58.08
48517;BME280;34310;51.904;4.256;2023-05-22T09:33:11;101705.91;;;20.46;58.17
48517;BME280;34310;51.904;4.256;2023-05-22T09:35:40;101720.84;;;20.47;58.42
48517;BME280;34310;51.904;4.256;2023-05-22T09:38:09;101726.97;;;20.48;58.37
48517;BME280;34310;51.904;4.256;2023-05-22T09:40:39;101732.22;;;20.48;58.54
48517;BME280;34310;51.904;4.256;2023-05-22T09:43:10;101719.09;;;20.48;58.39
48517;BME280;34310;51.904;4.256;2023-05-22T09:45:38;101717.44;;;20.50;58.27
48517;BME280;34310;51.904;4.256;2023-05-22T09:48:07;101718.34;;;20.50;58.20
48517;BME280;34310;51.904;4.256;2023-05-22T09:50:35;101712.19;;;20.50;58.18
48517;BME280;34310;51.904;4.256;2023-05-22T09:53:03;101715.72;;;20.50;58.37
48517;BME280;34310;51.904;4.256;2023-05-22T09:55:31;101715.78;;;20.52;58.22
48517;BME280;34310;51.904;4.256;2023-05-22T09:58:03;101715.78;;;20.52;58.13
48517;BME280;34310;51.904;4.256;2023-05-22T10:00:33;101724.56;;;20.52;58.17
48517;BME280;34310;51.904;4.256;2023-05-22T10:03:10;101724.66;;;20.54;58.43
48517;BME280;34310;51.904;4.256;2023-05-22T10:05:50;101719.41;;;20.54;58.27
48517;BME280;34310;51.904;4.256;2023-05-22T10:08:23;101723.81;;;20.55;58.45
48517;BME280;34310;51.904;4.256;2023-05-22T10:10:51;101710.69;;;20.55;58.49
48517;BME280;34310;51.904;4.256;2023-05-22T10:13:19;101723.00;;;20.56;58.23
48517;BME280;34310;51.904;4.256;2023-05-22T10:15:49;101725.63;;;20.56;58.28
48517;BME280;34310;51.904;4.256;2023-05-22T10:18:17;101721.25;;;20.56;58.40
48517;BME280;34310;51.904;4.256;2023-05-22T10:20:45;101735.28;;;20.57;58.16
48517;BME280;34310;51.904;4.256;2023-05-22T10:23:16;101725.69;;;20.57;58.21
48517;BME280;34310;51.904;4.256;2023-05-22T10:25:45;101731.81;;;20.58;58.15
48517;BME280;34310;51.904;4.256;2023-05-22T10:28:19;101723.13;;;20.59;58.39
48517;BME280;34310;51.904;4.256;2023-05-22T10:30:57;101727.47;;;20.58;58.44
48517;BME280;34310;51.904;4.256;2023-05-22T10:33:32;101730.16;;;20.60;58.16
48517;BME280;34310;51.904;4.256;2023-05-22T10:36:19;101737.22;;;20.61;58.30
48517;BME280;34310;51.904;4.256;2023-05-22T10:39:05;101731.97;;;20.61;58.35
48517;BME280;34310;51.904;4.256;2023-05-22T10:41:38;101733.75;;;20.62;58.32
48517;BME280;34310;51.904;4.256;2023-05-22T10:44:06;101733.75;;;20.62;58.18
48517;BME280;34310;51.904;4.256;2023-05-22T10:46:33;101724.97;;;20.61;58.22
48517;BME280;34310;51.904;4.256;2023-05-22T10:49:02;101725.94;;;20.63;58.26
48517;BME280;34310;51.904;4.256;2023-05-22T10:51:31;101724.22;;;20.64;58.32
48517;BME280;34310;51.904;4.256;2023-05-22T10:54:00;101729.53;;;20.65;58.21
48517;BME280;34310;51.904;4.256;2023-05-22T10:56:33;101733.06;;;20.66;58.30
48517;BME280;34310;51.904;4.256;2023-05-22T10:59:02;101732.16;;;20.65;58.48
48517;BME280;34310;51.904;4.256;2023-05-22T11:01:34;101726.06;;;20.66;58.19
48517;BME280;34310;51.904;4.256;2023-05-22T11:06:42;101719.16;;;20.68;58.31
48517;BME280;34310;51.904;4.256;2023-05-22T11:12:12;101724.47;;;20.70;58.14
48517;BME280;34310;51.904;4.256;2023-05-22T11:14:39;101716.59;;;20.70;58.29
48517;BME280;34310;51.904;4.256;2023-05-22T11:17:08;101713.16;;;20.71;58.48
48517;BME280;34310;51.904;4.256;2023-05-22T11:19:40;101702.72;;;20.72;58.16
48517;BME280;34310;51.904;4.256;2023-05-22T11:22:08;101706.25;;;20.73;58.21
48517;BME280;34310;51.904;4.256;2023-05-22T11:24:36;101702.78;;;20.74;58.44
48517;BME280;34310;51.904;4.256;2023-05-22T11:27:06;101710.72;;;20.76;58.35
48517;BME280;34310;51.904;4.256;2023-05-22T11:29:34;101705.47;;;20.76;58.47
48517;BME280;34310;51.904;4.256;2023-05-22T11:32:01;101702.00;;;20.77;58.25
48517;BME280;34310;51.904;4.256;2023-05-22T11:34:29;101711.69;;;20.78;58.08
48517;BME280;34310;51.904;4.256;2023-05-22T11:36:58;101702.09;;;20.78;58.12
48517;BME280;34310;51.904;4.256;2023-05-22T11:39:28;101697.72;;;20.79;58.17
48517;BME280;34310;51.904;4.256;2023-05-22T11:41:58;101711.91;;;20.82;58.27
48517;BME280;34310;51.904;4.256;2023-05-22T11:44:27;101714.44;;;20.81;58.26
48517;BME280;34310;51.904;4.256;2023-05-22T11:46:54;101720.69;;;20.83;58.40
48517;BME280;34310;51.904;4.256;2023-05-22T11:49:22;101712.88;;;20.84;58.38
48517;BME280;34310;51.904;4.256;2023-05-22T11:51:51;101714.66;;;20.85;58.14
48517;BME280;34310;51.904;4.256;2023-05-22T11:54:19;101716.47;;;20.86;58.16
48517;BME280;34310;51.904;4.256;2023-05-22T11:56:47;101718.25;;;20.87;58.39
48517;BME280;34310;51.904;4.256;2023-05-22T11:59:14;101718.31;;;20.89;58.40
48517;BME280;34310;51.904;4.256;2023-05-22T12:01:42;101718.31;;;20.89;58.29
48517;BME280;34310;51.904;4.256;2023-05-22T12:04:09;101722.78;;;20.91;58.31
48517;BME280;34310;51.904;4.256;2023-05-22T12:06:37;101725.41;;;20.91;58.31
48517;BME280;34310;51.904;4.256;2023-05-22T12:09:05;101728.09;;;20.93;58.22
48517;BME280;34310;51.904;4.256;2023-05-22T12:11:36;101727.28;;;20.94;58.22
48517;BME280;34310;51.904;4.256;2023-05-22T12:14:11;101738.75;;;20.96;58.15
48517;BME280;34310;51.904;4.256;2023-05-22T12:16:39;101731.75;;;20.96;58.41
48517;BME280;34310;51.904;4.256;2023-05-22T12:19:08;101737.91;;;20.97;58.25
48517;BME280;34310;51.904;4.256;2023-05-22T12:21:37;101740.59;;;20.98;58.29
48517;BME280;34310;51.904;4.256;2023-05-22T12:24:05;101738.94;;;21.00;58.32
48517;BME280;34310;51.904;4.256;2023-05-22T12:26:33;101743.28;;;21.00;58.34
48517;BME280;34310;51.904;4.256;2023-05-22T12:29:01;101739.81;;;21.01;58.38
48517;BME280;34310;51.904;4.256;2023-05-22T12:31:34;101741.69;;;21.03;58.31
48517;BME280;34310;51.904;4.256;2023-05-22T12:34:06;101739.06;;;21.03;58.39
48517;BME280;34310;51.904;4.256;2023-05-22T12:36:36;101747.91;;;21.06;58.19
48517;BME280;34310;51.904;4.256;2023-05-22T12:39:20;101749.69;;;21.07;58.44
48517;BME280;34310;51.904;4.256;2023-05-22T12:41:48;101747.13;;;21.08;58.26
48517;BME280;34310;51.904;4.256;2023-05-22T12:44:15;101740.16;;;21.09;58.21
48517;BME280;34310;51.904;4.256;2023-05-22T12:46:43;101742.75;;;21.09;58.35
48517;BME280;34310;51.904;4.256;2023-05-22T12:49:10;101742.03;;;21.11;58.35
48517;BME280;34310;51.904;4.256;2023-05-22T12:51:38;101741.19;;;21.12;58.28
48517;BME280;34310;51.904;4.256;2023-05-22T12:54:05;101739.53;;;21.14;58.42
48517;BME280;34310;51.904;4.256;2023-05-22T12:56:33;101745.75;;;21.16;58.17
48517;BME280;34310;51.904;4.256;2023-05-22T12:59:00;101735.25;;;21.16;58.40
48517;BME280;34310;51.904;4.256;2023-05-22T13:01:27;101745.81;;;21.18;58.43
48517;BME280;34310;51.904;4.256;2023-05-22T13:03:55;101741.44;;;21.18;58.35
48517;BME280;34310;51.904;4.256;2023-05-22T13:06:22;101739.78;;;21.20;58.46
48517;BME280;34310;51.904;4.256;2023-05-22T13:08:50;101739.78;;;21.20;58.35
48517;BME280;34310;51.904;4.256;2023-05-22T13:11:17;101741.63;;;21.23;58.40
48517;BME280;34310;51.904;4.256;2023-05-22T13:13:46;101748.72;;;21.24;58.23
48517;BME280;34310;51.904;4.256;2023-05-22T13:16:13;101746.16;;;21.25;58.34
48517;BME280;34310;51.904;4.256;2023-05-22T13:18:41;101751.47;;;21.27;58.38